sensor_id;sensor_type;location;lat;lon;timestamp;temperature;humidity
30572;DHT22;17348;50.948;10.696;2023-09-30T00:02:33;15.50;99.90
30572;DHT22;17348;50.948;10.696;2023-09-30T00:05:35;15.40;99.90
30572;DHT22;17348;50.948;10.696;2023-09-30T00:08:38;15.40;99.90
30572;DHT22;17348;50.948;10.696;2023-09-30T00:11:42;15.30;99.90
30572;DHT22;17348;50.948;10.696;2023-09-30T00:14:45;15.20;99.90
30572;DHT22;17348;50.948;10.696;2023-09-30T00:17:49;15.10;99.90
30572;DHT22;17348;50.948;10.696;2023-09-30T00:20:51;15.10;99.90
30572;DHT22;17348;50.948;10.696;2023-09-30T00:23:53;15.00;99.90
30572;DHT22;17348;50.948;10.696;2023-09-30T00:26:56;15.00;99.90
30572;DHT22;17348;50.948;10.696;2023-09-30T00:29:58;15.00;99.90
30572;DHT22;17348;50.948;10.696;2023-09-30T00:33:02;14.90;99.90
30572;DHT22;17348;50.948;10.696;2023-09-30T00:36:08;14.80;99.90
30572;DHT22;17348;50.948;10.696;2023-09-30T00:39:11;14.80;99.90
30572;DHT22;17348;50.948;10.696;2023-09-30T00:42:14;14.70;99.90
30572;DHT22;17348;50.948;10.696;2023-09-30T00:45:16;14.70;99.90
30572;DHT22;17348;50.948;10.696;2023-09-30T00:48:20;14.70;99.90
30572;DHT22;17348;50.948;10.696;2023-09-30T00:51:23;14.70;99.90
30572;DHT22;17348;50.948;10.696;2023-09-30T00:54:26;14.60;99.90
30572;DHT22;17348;50.948;10.696;2023-09-30T00:57:30;14.60;99.90
30572;DHT22;17348;50.948;10.696;2023-09-30T01:00:32;14.60;99.90
30572;DHT22;17348;50.948;10.696;2023-09-30T01:03:36;14.50;99.90
30572;DHT22;17348;50.948;10.696;2023-09-30T01:06:38;14.50;99.90
30572;DHT22;17348;50.948;10.696;2023-09-30T01:09:41;14.40;99.90
30572;DHT22;17348;50.948;10.696;2023-09-30T01:12:44;14.40;99.90
30572;DHT22;17348;50.948;10.696;2023-09-30T01:15:47;14.40;99.90
30572;DHT22;17348;50.948;10.696;2023-09-30T01:18:51;14.30;99.90
30572;DHT22;17348;50.948;10.696;2023-09-30T01:21:55;14.30;99.90
30572;DHT22;17348;50.948;10.696;2023-09-30T01:25:01;14.20;99.90
30572;DHT22;17348;50.948;10.696;2023-09-30T01:28:07;14.20;99.90
30572;DHT22;17348;50.948;10.696;2023-09-30T01:31:11;14.10;99.90
30572;DHT22;17348;50.948;10.696;2023-09-30T01:34:13;14.10;99.90
30572;DHT22;17348;50.948;10.696;2023-09-30T01:37:17;14.10;99.90
30572;DHT22;17348;50.948;10.696;2023-09-30T01:40:20;14.00;99.90
30572;DHT22;17348;50.948;10.696;2023-09-30T01:43:22;14.00;99.90
30572;DHT22;17348;50.948;10.696;2023-09-30T01:46:24;13.90;99.90
30572;DHT22;17348;50.948;10.696;2023-09-30T01:49:27;13.90;99.90
30572;DHT22;17348;50.948;10.696;2023-09-30T01:52:30;13.90;99.90
30572;DHT22;17348;50.948;10.696;2023-09-30T01:55:33;13.90;99.90
30572;DHT22;17348;50.948;10.696;2023-09-30T01:58:35;13.90;99.90
30572;DHT22;17348;50.948;10.696;2023-09-30T02:01:37;13.90;99.90
30572;DHT22;17348;50.948;10.696;2023-09-30T02:04:40;13.90;99.90
30572;DHT22;17348;50.948;10.696;2023-09-30T02:07:43;13.90;99.90
30572;DHT22;17348;50.948;10.696;2023-09-30T02:10:46;13.90;99.90
30572;DHT22;17348;50.948;10.696;2023-09-30T02:13:48;13.90;99.90
30572;DHT22;17348;50.948;10.696;2023-09-30T02:16:50;13.90;99.90
30572;DHT22;17348;50.948;10.696;2023-09-30T02:19:53;13.90;99.90
30572;DHT22;17348;50.948;10.696;2023-09-30T02:22:57;13.90;99.90
30572;DHT22;17348;50.948;10.696;2023-09-30T02:25:59;13.90;99.90
30572;DHT22;17348;50.948;10.696;2023-09-30T02:29:02;13.90;99.90
30572;DHT22;17348;50.948;10.696;2023-09-30T02:32:04;13.90;99.90
30572;DHT22;17348;50.948;10.696;2023-09-30T02:35:07;13.90;99.90
30572;DHT22;17348;50.948;10.696;2023-09-30T02:38:13;13.80;99.90
30572;DHT22;17348;50.948;10.696;2023-09-30T02:41:17;13.80;99.90
30572;DHT22;17348;50.948;10.696;2023-09-30T02:44:19;13.70;99.90
30572;DHT22;17348;50.948;10.696;2023-09-30T02:47:21;13.80;99.90
30572;DHT22;17348;50.948;10.696;2023-09-30T02:50:23;13.70;99.90
30572;DHT22;17348;50.948;10.696;2023-09-30T02:53:27;13.60;99.90
30572;DHT22;17348;50.948;10.696;2023-09-30T02:56:29;13.60;99.90
30572;DHT22;17348;50.948;10.696;2023-09-30T02:59:32;13.60;99.90
30572;DHT22;17348;50.948;10.696;2023-09-30T03:02:34;13.60;99.90
30572;DHT22;17348;50.948;10.696;2023-09-30T03:05:36;13.50;99.90
30572;DHT22;17348;50.948;10.696;2023-09-30T03:08:40;13.40;99.90
30572;DHT22;17348;50.948;10.696;2023-09-30T03:11:43;13.40;99.90
30572;DHT22;17348;50.948;10.696;2023-09-30T03:14:47;13.30;99.90
30572;DHT22;17348;50.948;10.696;2023-09-30T03:17:49;13.30;99.90
30572;DHT22;17348;50.948;10.696;2023-09-30T03:20:52;13.20;99.90
30572;DHT22;17348;50.948;10.696;2023-09-30T03:23:58;13.20;99.90
30572;DHT22;17348;50.948;10.696;2023-09-30T03:27:01;13.20;99.90
30572;DHT22;17348;50.948;10.696;2023-09-30T03:30:04;13.10;99.90
30572;DHT22;17348;50.948;10.696;2023-09-30T03:33:07;13.10;99.90
30572;DHT22;17348;50.948;10.696;2023-09-30T03:36:10;13.10;99.90
30572;DHT22;17348;50.948;10.696;2023-09-30T03:39:13;13.10;99.90
30572;DHT22;17348;50.948;10.696;2023-09-30T03:42:16;13.10;99.90
30572;DHT22;17348;50.948;10.696;2023-09-30T03:45:19;13.10;99.90
30572;DHT22;17348;50.948;10.696;2023-09-30T03:48:21;13.00;99.90
30572;DHT22;17348;50.948;10.696;2023-09-30T03:51:23;13.00;99.90
30572;DHT22;17348;50.948;10.696;2023-09-30T03:54:28;13.00;99.90
30572;DHT22;17348;50.948;10.696;2023-09-30T03:57:30;13.00;99.90
30572;DHT22;17348;50.948;10.696;2023-09-30T04:00:33;12.90;99.90
30572;DHT22;17348;50.948;10.696;2023-09-30T04:03:36;12.90;99.90
30572;DHT22;17348;50.948;10.696;2023-09-30T04:06:40;12.80;99.90
30572;DHT22;17348;50.948;10.696;2023-09-30T04:09:43;12.80;99.90
30572;DHT22;17348;50.948;10.696;2023-09-30T04:12:46;12.70;99.90
30572;DHT22;17348;50.948;10.696;2023-09-30T04:15:49;12.70;99.90
30572;DHT22;17348;50.948;10.696;2023-09-30T04:18:52;12.70;99.90
30572;DHT22;17348;50.948;10.696;2023-09-30T04:21:54;12.60;99.90
30572;DHT22;17348;50.948;10.696;2023-09-30T04:24:57;12.60;99.90
30572;DHT22;17348;50.948;10.696;2023-09-30T04:28:00;12.60;99.90
30572;DHT22;17348;50.948;10.696;2023-09-30T04:31:03;12.60;99.90
30572;DHT22;17348;50.948;10.696;2023-09-30T04:34:06;12.50;99.90
30572;DHT22;17348;50.948;10.696;2023-09-30T04:37:08;12.40;99.90
30572;DHT22;17348;50.948;10.696;2023-09-30T04:40:12;12.40;99.90
30572;DHT22;17348;50.948;10.696;2023-09-30T04:43:19;12.40;99.90
30572;DHT22;17348;50.948;10.696;2023-09-30T04:46:21;12.30;99.90
30572;DHT22;17348;50.948;10.696;2023-09-30T04:49:24;12.30;99.90
30572;DHT22;17348;50.948;10.696;2023-09-30T04:52:27;12.30;99.90
30572;DHT22;17348;50.948;10.696;2023-09-30T04:55:30;12.20;99.90
30572;DHT22;17348;50.948;10.696;2023-09-30T04:58:33;12.20;99.90
30572;DHT22;17348;50.948;10.696;2023-09-30T05:01:35;12.20;99.90
30572;DHT22;17348;50.948;10.696;2023-09-30T05:04:37;12.20;99.90
30572;DHT22;17348;50.948;10.696;2023-09-30T05:07:39;12.20;99.90
30572;DHT22;17348;50.948;10.696;2023-09-30T05:10:43;12.10;99.90
30572;DHT22;17348;50.948;10.696;2023-09-30T05:13:47;12.10;99.90
30572;DHT22;17348;50.948;10.696;2023-09-30T05:16:49;12.00;99.90
30572;DHT22;17348;50.948;10.696;2023-09-30T05:19:51;12.00;99.90
30572;DHT22;17348;50.948;10.696;2023-09-30T05:22:54;12.00;99.90
30572;DHT22;17348;50.948;10.696;2023-09-30T05:25:58;12.00;99.90
30572;DHT22;17348;50.948;10.696;2023-09-30T05:29:01;12.00;99.90
30572;DHT22;17348;50.948;10.696;2023-09-30T05:32:04;12.00;99.90
30572;DHT22;17348;50.948;10.696;2023-09-30T05:35:08;12.00;99.90
30572;DHT22;17348;50.948;10.696;2023-09-30T05:38:13;11.90;99.90
30572;DHT22;17348;50.948;10.696;2023-09-30T05:41:17;11.90;99.90
30572;DHT22;17348;50.948;10.696;2023-09-30T05:44:21;12.00;99.90
30572;DHT22;17348;50.948;10.696;2023-09-30T05:47:25;11.90;99.90
30572;DHT22;17348;50.948;10.696;2023-09-30T05:50:27;11.90;99.90
30572;DHT22;17348;50.948;10.696;2023-09-30T05:53:30;11.80;99.90
30572;DHT22;17348;50.948;10.696;2023-09-30T05:56:35;11.90;99.90
30572;DHT22;17348;50.948;10.696;2023-09-30T05:59:38;11.80;99.90
30572;DHT22;17348;50.948;10.696;2023-09-30T06:02:40;11.80;99.90
30572;DHT22;17348;50.948;10.696;2023-09-30T06:05:43;11.80;99.90
30572;DHT22;17348;50.948;10.696;2023-09-30T06:08:45;11.80;99.90
30572;DHT22;17348;50.948;10.696;2023-09-30T06:11:49;11.80;99.90
30572;DHT22;17348;50.948;10.696;2023-09-30T06:14:51;11.80;99.90
30572;DHT22;17348;50.948;10.696;2023-09-30T06:17:55;11.80;99.90
30572;DHT22;17348;50.948;10.696;2023-09-30T06:20:57;11.80;99.90
30572;DHT22;17348;50.948;10.696;2023-09-30T06:24:00;11.70;99.90
30572;DHT22;17348;50.948;10.696;2023-09-30T06:27:03;11.70;99.90
30572;DHT22;17348;50.948;10.696;2023-09-30T06:30:06;11.70;99.90
30572;DHT22;17348;50.948;10.696;2023-09-30T06:33:10;11.70;99.90
30572;DHT22;17348;50.948;10.696;2023-09-30T06:36:15;11.70;99.90
30572;DHT22;17348;50.948;10.696;2023-09-30T06:39:17;11.80;99.90
30572;DHT22;17348;50.948;10.696;2023-09-30T06:42:21;11.90;99.90
30572;DHT22;17348;50.948;10.696;2023-09-30T06:45:24;11.90;99.90
30572;DHT22;17348;50.948;10.696;2023-09-30T06:48:27;11.90;99.90
30572;DHT22;17348;50.948;10.696;2023-09-30T06:51:29;12.00;99.90
30572;DHT22;17348;50.948;10.696;2023-09-30T06:54:32;12.00;99.90
30572;DHT22;17348;50.948;10.696;2023-09-30T06:57:36;12.10;99.90
30572;DHT22;17348;50.948;10.696;2023-09-30T07:00:40;12.30;99.90
30572;DHT22;17348;50.948;10.696;2023-09-30T07:03:42;12.30;99.90
30572;DHT22;17348;50.948;10.696;2023-09-30T07:06:45;12.40;99.90
30572;DHT22;17348;50.948;10.696;2023-09-30T07:09:47;12.40;99.90
30572;DHT22;17348;50.948;10.696;2023-09-30T07:12:51;12.50;99.90
30572;DHT22;17348;50.948;10.696;2023-09-30T07:15:53;12.50;99.90
30572;DHT22;17348;50.948;10.696;2023-09-30T07:18:56;12.50;99.90
30572;DHT22;17348;50.948;10.696;2023-09-30T07:21:58;12.50;99.90
30572;DHT22;17348;50.948;10.696;2023-09-30T07:25:00;12.50;99.90
30572;DHT22;17348;50.948;10.696;2023-09-30T07:28:05;12.60;99.90
30572;DHT22;17348;50.948;10.696;2023-09-30T07:31:12;12.70;99.90
30572;DHT22;17348;50.948;10.696;2023-09-30T07:34:14;12.80;99.90
30572;DHT22;17348;50.948;10.696;2023-09-30T07:37:17;12.90;99.90
30572;DHT22;17348;50.948;10.696;2023-09-30T07:40:19;13.00;99.90
30572;DHT22;17348;50.948;10.696;2023-09-30T07:43:24;13.10;99.90
30572;DHT22;17348;50.948;10.696;2023-09-30T07:46:26;13.10;99.90
30572;DHT22;17348;50.948;10.696;2023-09-30T07:49:29;13.30;99.90
30572;DHT22;17348;50.948;10.696;2023-09-30T07:52:32;13.40;99.90
30572;DHT22;17348;50.948;10.696;2023-09-30T07:55:34;13.60;99.90
30572;DHT22;17348;50.948;10.696;2023-09-30T07:58:38;13.70;99.90
30572;DHT22;17348;50.948;10.696;2023-09-30T08:01:40;13.80;99.90
30572;DHT22;17348;50.948;10.696;2023-09-30T08:04:42;13.90;99.90
30572;DHT22;17348;50.948;10.696;2023-09-30T08:07:45;14.00;99.90
30572;DHT22;17348;50.948;10.696;2023-09-30T08:10:48;14.10;99.90
30572;DHT22;17348;50.948;10.696;2023-09-30T08:13:51;14.20;99.90
30572;DHT22;17348;50.948;10.696;2023-09-30T08:16:54;14.30;99.90
30572;DHT22;17348;50.948;10.696;2023-09-30T08:19:57;14.50;99.90
30572;DHT22;17348;50.948;10.696;2023-09-30T08:22:59;14.50;99.90
30572;DHT22;17348;50.948;10.696;2023-09-30T08:26:01;14.60;99.90
30572;DHT22;17348;50.948;10.696;2023-09-30T08:29:07;14.60;99.90
30572;DHT22;17348;50.948;10.696;2023-09-30T08:32:10;14.60;99.90
30572;DHT22;17348;50.948;10.696;2023-09-30T08:35:12;14.70;99.90
30572;DHT22;17348;50.948;10.696;2023-09-30T08:38:15;14.80;99.90
30572;DHT22;17348;50.948;10.696;2023-09-30T08:41:27;14.90;99.90
30572;DHT22;17348;50.948;10.696;2023-09-30T08:44:35;15.10;99.90
30572;DHT22;17348;50.948;10.696;2023-09-30T08:47:38;15.10;99.90
30572;DHT22;17348;50.948;10.696;2023-09-30T08:50:42;15.20;99.90
30572;DHT22;17348;50.948;10.696;2023-09-30T08:53:45;15.40;99.90
30572;DHT22;17348;50.948;10.696;2023-09-30T08:56:48;15.40;99.90
30572;DHT22;17348;50.948;10.696;2023-09-30T08:59:53;15.50;99.90
30572;DHT22;17348;50.948;10.696;2023-09-30T09:02:55;15.50;99.90
30572;DHT22;17348;50.948;10.696;2023-09-30T09:05:58;15.60;99.90
30572;DHT22;17348;50.948;10.696;2023-09-30T09:09:16;15.60;99.90
30572;DHT22;17348;50.948;10.696;2023-09-30T09:12:19;15.60;99.90
30572;DHT22;17348;50.948;10.696;2023-09-30T09:15:25;15.70;99.90
30572;DHT22;17348;50.948;10.696;2023-09-30T09:18:31;15.70;99.90
30572;DHT22;17348;50.948;10.696;2023-09-30T09:21:34;15.70;99.90
30572;DHT22;17348;50.948;10.696;2023-09-30T09:24:37;15.70;99.90
30572;DHT22;17348;50.948;10.696;2023-09-30T09:27:40;15.80;99.90
30572;DHT22;17348;50.948;10.696;2023-09-30T09:30:43;16.00;99.90
30572;DHT22;17348;50.948;10.696;2023-09-30T09:33:46;16.10;99.90
30572;DHT22;17348;50.948;10.696;2023-09-30T09:36:48;16.10;99.90
30572;DHT22;17348;50.948;10.696;2023-09-30T09:39:52;16.20;99.90
30572;DHT22;17348;50.948;10.696;2023-09-30T09:42:54;16.30;99.90
30572;DHT22;17348;50.948;10.696;2023-09-30T09:45:58;16.50;99.90
30572;DHT22;17348;50.948;10.696;2023-09-30T09:49:04;16.60;99.90
30572;DHT22;17348;50.948;10.696;2023-09-30T09:52:07;16.70;99.90
30572;DHT22;17348;50.948;10.696;2023-09-30T09:55:11;16.90;99.90
30572;DHT22;17348;50.948;10.696;2023-09-30T09:58:13;17.00;99.90
30572;DHT22;17348;50.948;10.696;2023-09-30T10:01:17;17.10;99.90
30572;DHT22;17348;50.948;10.696;2023-09-30T10:04:20;17.10;99.90
30572;DHT22;17348;50.948;10.696;2023-09-30T10:07:26;17.10;99.90
30572;DHT22;17348;50.948;10.696;2023-09-30T10:10:30;17.20;99.90
30572;DHT22;17348;50.948;10.696;2023-09-30T10:13:54;17.10;99.90
30572;DHT22;17348;50.948;10.696;2023-09-30T10:16:59;17.10;99.90
30572;DHT22;17348;50.948;10.696;2023-09-30T10:20:06;17.10;99.90
30572;DHT22;17348;50.948;10.696;2023-09-30T10:23:22;17.10;99.90
30572;DHT22;17348;50.948;10.696;2023-09-30T10:26:25;17.20;99.90
30572;DHT22;17348;50.948;10.696;2023-09-30T10:29:39;17.30;99.90
30572;DHT22;17348;50.948;10.696;2023-09-30T10:33:11;17.40;99.90
30572;DHT22;17348;50.948;10.696;2023-09-30T10:36:26;17.50;99.90
30572;DHT22;17348;50.948;10.696;2023-09-30T10:39:56;17.50;99.90
30572;DHT22;17348;50.948;10.696;2023-09-30T10:43:00;17.60;99.90
30572;DHT22;17348;50.948;10.696;2023-09-30T10:46:03;17.60;99.90
30572;DHT22;17348;50.948;10.696;2023-09-30T10:49:17;17.70;99.90
30572;DHT22;17348;50.948;10.696;2023-09-30T10:52:21;17.90;99.90
30572;DHT22;17348;50.948;10.696;2023-09-30T10:55:26;17.90;99.90
30572;DHT22;17348;50.948;10.696;2023-09-30T10:58:39;17.90;99.90
30572;DHT22;17348;50.948;10.696;2023-09-30T11:01:42;18.00;99.90
30572;DHT22;17348;50.948;10.696;2023-09-30T11:04:49;18.10;99.90
30572;DHT22;17348;50.948;10.696;2023-09-30T11:07:52;18.10;99.90
30572;DHT22;17348;50.948;10.696;2023-09-30T11:10:56;18.10;99.90
30572;DHT22;17348;50.948;10.696;2023-09-30T11:13:58;18.20;99.90
30572;DHT22;17348;50.948;10.696;2023-09-30T11:17:01;18.20;99.90
30572;DHT22;17348;50.948;10.696;2023-09-30T11:20:08;18.20;99.90
30572;DHT22;17348;50.948;10.696;2023-09-30T11:23:11;18.30;99.90
30572;DHT22;17348;50.948;10.696;2023-09-30T11:26:13;18.40;99.90
30572;DHT22;17348;50.948;10.696;2023-09-30T11:29:16;18.50;99.90
30572;DHT22;17348;50.948;10.696;2023-09-30T11:32:25;18.60;99.90
30572;DHT22;17348;50.948;10.696;2023-09-30T11:35:29;18.70;99.90
30572;DHT22;17348;50.948;10.696;2023-09-30T11:38:34;18.70;99.90
30572;DHT22;17348;50.948;10.696;2023-09-30T11:41:39;18.70;99.90
30572;DHT22;17348;50.948;10.696;2023-09-30T11:44:45;18.60;99.90
30572;DHT22;17348;50.948;10.696;2023-09-30T11:47:48;18.80;99.90
30572;DHT22;17348;50.948;10.696;2023-09-30T11:50:52;18.90;99.90
30572;DHT22;17348;50.948;10.696;2023-09-30T11:53:56;18.90;99.90
30572;DHT22;17348;50.948;10.696;2023-09-30T11:57:00;19.10;99.90
30572;DHT22;17348;50.948;10.696;2023-09-30T12:00:05;19.10;99.90
30572;DHT22;17348;50.948;10.696;2023-09-30T12:03:14;19.10;99.90
30572;DHT22;17348;50.948;10.696;2023-09-30T12:06:18;19.10;99.90
30572;DHT22;17348;50.948;10.696;2023-09-30T12:09:20;19.10;99.90
30572;DHT22;17348;50.948;10.696;2023-09-30T12:12:27;19.10;99.90
30572;DHT22;17348;50.948;10.696;2023-09-30T12:15:29;19.00;99.90
30572;DHT22;17348;50.948;10.696;2023-09-30T12:18:32;19.00;99.90
30572;DHT22;17348;50.948;10.696;2023-09-30T12:21:36;19.10;99.90
30572;DHT22;17348;50.948;10.696;2023-09-30T12:24:38;19.10;99.90
30572;DHT22;17348;50.948;10.696;2023-09-30T12:27:41;19.10;99.90
30572;DHT22;17348;50.948;10.696;2023-09-30T12:30:43;19.10;99.90
30572;DHT22;17348;50.948;10.696;2023-09-30T12:33:46;19.10;99.90
30572;DHT22;17348;50.948;10.696;2023-09-30T12:36:53;19.10;99.90
30572;DHT22;17348;50.948;10.696;2023-09-30T12:39:56;19.10;99.90
30572;DHT22;17348;50.948;10.696;2023-09-30T12:42:59;19.10;99.90
30572;DHT22;17348;50.948;10.696;2023-09-30T12:46:02;19.20;99.90
30572;DHT22;17348;50.948;10.696;2023-09-30T12:49:06;19.20;99.90
30572;DHT22;17348;50.948;10.696;2023-09-30T12:52:10;19.30;99.90
30572;DHT22;17348;50.948;10.696;2023-09-30T12:55:13;19.30;99.90
30572;DHT22;17348;50.948;10.696;2023-09-30T12:58:16;19.40;99.90
30572;DHT22;17348;50.948;10.696;2023-09-30T13:01:18;19.50;99.90
30572;DHT22;17348;50.948;10.696;2023-09-30T13:04:20;19.50;99.90
30572;DHT22;17348;50.948;10.696;2023-09-30T13:07:26;19.50;99.90
30572;DHT22;17348;50.948;10.696;2023-09-30T13:10:28;19.50;99.90
30572;DHT22;17348;50.948;10.696;2023-09-30T13:13:31;19.50;99.90
30572;DHT22;17348;50.948;10.696;2023-09-30T13:16:34;19.40;99.90
30572;DHT22;17348;50.948;10.696;2023-09-30T13:19:36;19.40;99.90
30572;DHT22;17348;50.948;10.696;2023-09-30T13:22:40;19.50;99.90
30572;DHT22;17348;50.948;10.696;2023-09-30T13:25:43;19.50;99.90
30572;DHT22;17348;50.948;10.696;2023-09-30T13:28:45;19.60;99.90
30572;DHT22;17348;50.948;10.696;2023-09-30T13:31:47;19.60;99.90
30572;DHT22;17348;50.948;10.696;2023-09-30T13:34:50;19.60;99.90
30572;DHT22;17348;50.948;10.696;2023-09-30T13:37:54;19.70;99.90
30572;DHT22;17348;50.948;10.696;2023-09-30T13:40:56;19.70;99.90
30572;DHT22;17348;50.948;10.696;2023-09-30T13:43:59;19.70;99.90
30572;DHT22;17348;50.948;10.696;2023-09-30T13:47:01;19.60;99.90
30572;DHT22;17348;50.948;10.696;2023-09-30T13:50:05;19.50;99.90
30572;DHT22;17348;50.948;10.696;2023-09-30T13:53:09;19.60;99.90
30572;DHT22;17348;50.948;10.696;2023-09-30T13:56:12;19.60;99.90
30572;DHT22;17348;50.948;10.696;2023-09-30T13:59:14;19.60;99.90
30572;DHT22;17348;50.948;10.696;2023-09-30T14:02:16;19.60;99.90
30572;DHT22;17348;50.948;10.696;2023-09-30T14:05:19;19.70;99.90
30572;DHT22;17348;50.948;10.696;2023-09-30T14:08:23;19.80;99.90
30572;DHT22;17348;50.948;10.696;2023-09-30T14:11:26;19.80;99.90
30572;DHT22;17348;50.948;10.696;2023-09-30T14:14:28;19.80;99.90
30572;DHT22;17348;50.948;10.696;2023-09-30T14:17:31;19.80;99.90
30572;DHT22;17348;50.948;10.696;2023-09-30T14:20:33;19.70;99.90
30572;DHT22;17348;50.948;10.696;2023-09-30T14:23:38;19.70;99.90
30572;DHT22;17348;50.948;10.696;2023-09-30T14:26:40;19.70;99.90
30572;DHT22;17348;50.948;10.696;2023-09-30T14:29:45;19.80;99.90
30572;DHT22;17348;50.948;10.696;2023-09-30T14:32:47;19.70;99.90
30572;DHT22;17348;50.948;10.696;2023-09-30T14:35:49;19.80;99.90
30572;DHT22;17348;50.948;10.696;2023-09-30T14:38:53;19.80;99.90
30572;DHT22;17348;50.948;10.696;2023-09-30T14:41:55;19.80;99.90
30572;DHT22;17348;50.948;10.696;2023-09-30T14:44:57;19.80;99.90
30572;DHT22;17348;50.948;10.696;2023-09-30T14:48:00;19.80;99.90
30572;DHT22;17348;50.948;10.696;2023-09-30T14:51:02;19.60;99.90
30572;DHT22;17348;50.948;10.696;2023-09-30T14:54:07;19.50;99.90
30572;DHT22;17348;50.948;10.696;2023-09-30T14:57:09;19.40;99.90
30572;DHT22;17348;50.948;10.696;2023-09-30T15:00:13;19.40;99.90
30572;DHT22;17348;50.948;10.696;2023-09-30T15:03:16;19.30;99.90
30572;DHT22;17348;50.948;10.696;2023-09-30T15:06:18;19.30;99.90
30572;DHT22;17348;50.948;10.696;2023-09-30T15:09:23;19.30;99.90
30572;DHT22;17348;50.948;10.696;2023-09-30T15:12:25;19.30;99.90
30572;DHT22;17348;50.948;10.696;2023-09-30T15:15:28;19.30;99.90
30572;DHT22;17348;50.948;10.696;2023-09-30T15:18:30;19.30;99.90
30572;DHT22;17348;50.948;10.696;2023-09-30T15:21:32;19.30;99.90
30572;DHT22;17348;50.948;10.696;2023-09-30T15:24:36;19.30;99.90
30572;DHT22;17348;50.948;10.696;2023-09-30T15:27:38;19.30;99.90
30572;DHT22;17348;50.948;10.696;2023-09-30T15:30:41;19.20;99.90
30572;DHT22;17348;50.948;10.696;2023-09-30T15:33:43;19.20;99.90
30572;DHT22;17348;50.948;10.696;2023-09-30T15:36:45;19.10;99.90
30572;DHT22;17348;50.948;10.696;2023-09-30T15:39:49;19.00;99.90
30572;DHT22;17348;50.948;10.696;2023-09-30T15:42:51;18.90;99.90
30572;DHT22;17348;50.948;10.696;2023-09-30T15:45:54;18.90;99.90
30572;DHT22;17348;50.948;10.696;2023-09-30T15:48:56;18.90;99.90
30572;DHT22;17348;50.948;10.696;2023-09-30T15:51:58;18.90;99.90
30572;DHT22;17348;50.948;10.696;2023-09-30T15:55:02;18.80;99.90
30572;DHT22;17348;50.948;10.696;2023-09-30T15:58:05;18.80;99.90
30572;DHT22;17348;50.948;10.696;2023-09-30T16:01:11;18.80;99.90
30572;DHT22;17348;50.948;10.696;2023-09-30T16:04:13;18.60;99.90
30572;DHT22;17348;50.948;10.696;2023-09-30T16:07:16;18.60;99.90
30572;DHT22;17348;50.948;10.696;2023-09-30T16:10:19;18.50;99.90
30572;DHT22;17348;50.948;10.696;2023-09-30T16:13:22;18.50;99.90
30572;DHT22;17348;50.948;10.696;2023-09-30T16:16:24;18.30;99.90
30572;DHT22;17348;50.948;10.696;2023-09-30T16:19:27;18.30;99.90
30572;DHT22;17348;50.948;10.696;2023-09-30T16:22:29;18.20;99.90
30572;DHT22;17348;50.948;10.696;2023-09-30T16:25:34;18.20;99.90
30572;DHT22;17348;50.948;10.696;2023-09-30T16:28:36;18.20;99.90
30572;DHT22;17348;50.948;10.696;2023-09-30T16:31:39;18.10;99.90
30572;DHT22;17348;50.948;10.696;2023-09-30T16:34:41;18.00;99.90
30572;DHT22;17348;50.948;10.696;2023-09-30T16:37:43;17.90;99.90
30572;DHT22;17348;50.948;10.696;2023-09-30T16:40:48;17.80;99.90
30572;DHT22;17348;50.948;10.696;2023-09-30T16:43:50;17.70;99.90
30572;DHT22;17348;50.948;10.696;2023-09-30T16:46:52;17.60;99.90
30572;DHT22;17348;50.948;10.696;2023-09-30T16:49:55;17.50;99.90
30572;DHT22;17348;50.948;10.696;2023-09-30T16:52:58;17.40;99.90
30572;DHT22;17348;50.948;10.696;2023-09-30T16:56:03;17.30;99.90
30572;DHT22;17348;50.948;10.696;2023-09-30T16:59:05;17.20;99.90
30572;DHT22;17348;50.948;10.696;2023-09-30T17:02:08;17.10;99.90
30572;DHT22;17348;50.948;10.696;2023-09-30T17:05:11;17.00;99.90
30572;DHT22;17348;50.948;10.696;2023-09-30T17:08:13;16.80;99.90
30572;DHT22;17348;50.948;10.696;2023-09-30T17:11:19;16.70;99.90
30572;DHT22;17348;50.948;10.696;2023-09-30T17:14:21;16.60;99.90
30572;DHT22;17348;50.948;10.696;2023-09-30T17:17:23;16.50;99.90
30572;DHT22;17348;50.948;10.696;2023-09-30T17:20:26;16.40;99.90
30572;DHT22;17348;50.948;10.696;2023-09-30T17:23:29;16.30;99.90
30572;DHT22;17348;50.948;10.696;2023-09-30T17:26:32;16.20;99.90
30572;DHT22;17348;50.948;10.696;2023-09-30T17:29:35;16.10;99.90
30572;DHT22;17348;50.948;10.696;2023-09-30T17:32:39;16.00;99.90
30572;DHT22;17348;50.948;10.696;2023-09-30T17:35:41;15.90;99.90
30572;DHT22;17348;50.948;10.696;2023-09-30T17:38:44;15.90;99.90
30572;DHT22;17348;50.948;10.696;2023-09-30T17:41:48;15.80;99.90
30572;DHT22;17348;50.948;10.696;2023-09-30T17:44:51;15.70;99.90
30572;DHT22;17348;50.948;10.696;2023-09-30T17:47:53;15.60;99.90
30572;DHT22;17348;50.948;10.696;2023-09-30T17:50:55;15.50;99.90
30572;DHT22;17348;50.948;10.696;2023-09-30T17:53:58;15.40;99.90
30572;DHT22;17348;50.948;10.696;2023-09-30T17:57:01;15.20;99.90
30572;DHT22;17348;50.948;10.696;2023-09-30T18:00:05;15.10;99.90
30572;DHT22;17348;50.948;10.696;2023-09-30T18:03:10;15.00;99.90
30572;DHT22;17348;50.948;10.696;2023-09-30T18:06:12;14.90;99.90
30572;DHT22;17348;50.948;10.696;2023-09-30T18:09:14;14.80;99.90
30572;DHT22;17348;50.948;10.696;2023-09-30T18:12:18;14.70;99.90
30572;DHT22;17348;50.948;10.696;2023-09-30T18:15:21;14.60;99.90
30572;DHT22;17348;50.948;10.696;2023-09-30T18:18:23;14.60;99.90
30572;DHT22;17348;50.948;10.696;2023-09-30T18:21:26;14.50;99.90
30572;DHT22;17348;50.948;10.696;2023-09-30T18:24:28;14.40;99.90
30572;DHT22;17348;50.948;10.696;2023-09-30T18:27:32;14.30;99.90
30572;DHT22;17348;50.948;10.696;2023-09-30T18:30:38;14.30;99.90
30572;DHT22;17348;50.948;10.696;2023-09-30T18:33:41;14.20;99.90
30572;DHT22;17348;50.948;10.696;2023-09-30T18:36:43;14.10;99.90
30572;DHT22;17348;50.948;10.696;2023-09-30T18:39:45;14.00;99.90
30572;DHT22;17348;50.948;10.696;2023-09-30T18:42:49;13.90;99.90
30572;DHT22;17348;50.948;10.696;2023-09-30T18:45:53;13.80;99.90
30572;DHT22;17348;50.948;10.696;2023-09-30T18:48:55;13.80;99.90
30572;DHT22;17348;50.948;10.696;2023-09-30T18:51:58;13.70;99.90
30572;DHT22;17348;50.948;10.696;2023-09-30T18:55:01;13.60;99.90
30572;DHT22;17348;50.948;10.696;2023-09-30T18:58:05;13.60;99.90
30572;DHT22;17348;50.948;10.696;2023-09-30T19:01:08;13.50;99.90